Sialkot, Pakistan

12:43 AM PKT on September 03, 2014 (GMT +0500)
Amritsar | Change Station
CLOSE
Current Station
Airport
Location: Amritsar,
Elevation: 755 ft
Nearby Weather Stations

Elev 755 ft 31.71 °N, 74.80 °E | Updated 13 minutes ago

Overcast
Overcast
77 °F
Feels Like 77 °F
N
0
Wind Variable Wind from Variable

Today
High -- | Low -- °F
--% Chance of Precip.
Yesterday
High -- | Low -- °F
Precip. -- in
5:37 AM 6:24 PM
First Quarter, 54% visible
Pressure 29.71 in
Visibility 1.9 miles
Clouds Scattered Clouds 3000 ft
Overcast 9000 ft
Dew Point 75 °F
Humidity 94%
Rainfall 0.00 in
Snow Depth Not available.
UV 0 out of 12
Pollen Not available.
Air Quality Not available.
Flu Activity Not available.
METAR VIAR 021930Z VRB00KT 3000 BR SCT030 OVC090 25/24 Q1006

More Conditions Fewer Conditions

Pressure 29.71 in
Visibility 1.9 miles
Clouds Scattered Clouds 3000 ft
Overcast 9000 ft
Dew Point 75 °F
Humidity 94%
Rainfall 0.00 in
Snow Depth Not available.
UV 0 out of 12
Pollen Not available.
Air Quality Not available.
Flu Activity Not available.
METAR VIAR 021930Z VRB00KT 3000 BR SCT030 OVC090 25/24 Q1006

More Conditions Fewer Conditions

10-Day Weather Forecast

Almanac

Astronomy

Sep. 03, 2014 Rise Set
Actual Time 5:37 AM PKT 6:24 PM PKT
Civil Twilight 5:12 AM PKT 6:49 PM PKT
Nautical Twilight 4:43 AM PKT 7:18 PM PKT
Astronomical Twilight 4:13 AM PKT 7:48 PM PKT
Moon 1:29 PM PKT (9/3) No Moon Set
Length of Visible Light 13h 36m
Length of Day
12h 46m
Tomorrow will be 1m 55s shorter.
First Quarter, 54% of the Moon is Illuminated
Sep 2
First Quarter
Sep 8
Full
Sep 15
Last Quarter
Sep 24
New
Oct 1
First Quarter

Yesterday's Extremes

Country Highs Country Lows

Community

WunderPhotos

Upload Photos

1,749,751 photos uploaded!

WunderBlogs® & News

By Dr. Jeff Masters
Director of Meteorology, Weather Underground
By Kari Strenfel
Meteorologist, Weather Underground
By Christopher C. Burt
Weather Historian, Weather Underground
September 2, 2014
September 2, 2014
September 2, 2014

Nearby

Snow Depth

Not available.

Earthquake Activity

City Distance Mag. Time & Date
No recent earthquake activity has been reported nearby.
Minimum magnitude displayed is 2.5.

Coastal Water Temperatures

Place Temperature
No Stations Reporting

Nearby Weather Stations